Time;durP1;ratioP1;P1;durP2;ratioP2;P2;SDS_P1;SDS_P2;PMS_P1;PMS_P2;Temp;Humidity;BMP_temperature;BMP_pressure;BME280_temperature;BME280_humidity;BME280_pressure;Samples;Min_cycle;Max_cycle;Signal;HPM_P1;HPM_P2
2022/09/12 00:01:41;;;;;;;19.23;15.68;;;;;;;;;;5074304;28;20024;-83
2022/09/12 00:04:10;;;;;;;20.33;16.10;;;;;;;;;;5073147;28;20028;-83
2022/09/12 00:06:37;;;;;;;19.00;15.98;;;;;;;;;;5074558;28;20116;-83
2022/09/12 00:09:07;;;;;;;22.33;18.30;;;;;;;;;;5073359;28;20059;-83
2022/09/12 00:11:33;;;;;;;;;;;;;;;;;;5074483;28;20441;-83
2022/09/12 00:14:00;;;;;;;25.67;20.73;;;;;;;;;;5074910;28;19999;-83
2022/09/12 00:16:28;;;;;;;26.55;21.77;;;;;;;;;;5077714;28;20481;-82
2022/09/12 00:18:54;;;;;;;24.05;19.80;;;;;;;;;;5084561;28;20115;-84
2022/09/12 00:21:21;;;;;;;27.05;20.77;;;;;;;;;;5084166;28;20099;-83
2022/09/12 00:23:48;;;;;;;25.98;20.35;;;;;;;;;;5094537;28;20033;-83
2022/09/12 00:26:14;;;;;;;28.30;20.75;;;;;;;;;;5086373;28;20043;-84
2022/09/12 00:28:41;;;;;;;26.77;21.58;;;;;;;;;;5075169;28;20022;-84
2022/09/12 00:31:11;;;;;;;30.45;24.50;;;;;;;;;;5075555;28;20017;-83
2022/09/12 00:33:37;;;;;;;29.20;23.52;;;;;;;;;;5075456;28;20101;-84
2022/09/12 00:36:04;;;;;;;28.27;24.17;;;;;;;;;;5075734;28;20082;-85
2022/09/12 00:38:30;;;;;;;30.58;21.40;;;;;;;;;;5076538;28;20078;-83
2022/09/12 00:40:56;;;;;;;28.85;22.27;;;;;;;;;;5075295;28;20025;-84
2022/09/12 00:43:33;;;;;;;29.15;23.23;;;;;;;;;;5074580;28;20459;-84
2022/09/12 00:46:05;;;;;;;31.27;23.63;;;;;;;;;;5075402;28;20029;-84
2022/09/12 00:48:49;;;;;;;29.88;23.08;;;;;;;;;;5063760;28;20037;-84
2022/09/12 00:51:15;;;;;;;29.52;23.48;;;;;;;;;;5074546;28;20384;-83
2022/09/12 00:53:42;;;;;;;30.17;22.55;;;;;;;;;;5074231;28;20017;-83
2022/09/12 00:56:09;;;;;;;27.95;22.33;;;;;;;;;;5074753;28;20025;-84
2022/09/12 00:58:39;;;;;;;28.00;21.33;;;;;;;;;;5074645;28;20099;-84
2022/09/12 01:01:05;;;;;;;;;;;;;;;;;;5074239;28;20024;-83
2022/09/12 01:03:31;;;;;;;28.85;21.55;;;;;;;;;;5072203;28;20278;-83
2022/09/12 01:06:18;;;;;;;29.55;22.20;;;;;;;;;;5073643;28;20103;-84
2022/09/12 01:08:47;;;;;;;27.55;21.52;;;;;;;;;;5072654;28;20028;-84
2022/09/12 01:11:14;;;;;;;27.77;21.20;;;;;;;;;;5073056;28;20109;-83
2022/09/12 01:13:46;;;;;;;28.02;22.33;;;;;;;;;;5074040;28;20048;-84
2022/09/12 01:16:12;;;;;;;25.73;22.00;;;;;;;;;;5074338;28;20020;-83
2022/09/12 01:18:39;;;;;;;28.15;21.17;;;;;;;;;;5073241;28;20020;-84
2022/09/12 01:21:08;;;;;;;26.17;22.13;;;;;;;;;;5074072;28;20158;-84
2022/09/12 01:23:35;;;;;;;27.98;21.77;;;;;;;;;;5073591;28;20379;-84
2022/09/12 01:26:13;;;;;;;28.67;21.25;;;;;;;;;;5072800;28;20044;-83
2022/09/12 01:28:39;;;;;;;27.23;20.98;;;;;;;;;;5072408;28;20560;-83
2022/09/12 01:31:05;;;;;;;26.63;21.70;;;;;;;;;;5073514;28;20025;-83
2022/09/12 01:33:37;;;;;;;30.23;21.08;;;;;;;;;;5075927;28;20120;-83
2022/09/12 01:36:18;;;;;;;27.33;21.27;;;;;;;;;;5073703;28;20059;-83
2022/09/12 01:38:47;;;;;;;26.65;21.88;;;;;;;;;;5075634;28;20023;-83
2022/09/12 01:41:28;;;;;;;28.90;22.98;;;;;;;;;;5074403;28;20029;-84
2022/09/12 01:44:01;;;;;;;28.38;22.08;;;;;;;;;;5072580;28;20655;-84
2022/09/12 01:46:32;;;;;;;31.95;20.02;;;;;;;;;;5072067;28;20055;-84
2022/09/12 01:48:58;;;;;;;;;;;;;;;;;;5072678;28;20383;-83
2022/09/12 01:51:41;;;;;;;32.08;24.27;;;;;;;;;;5072054;28;19912;-84
2022/09/12 01:54:13;;;;;;;32.15;24.35;;;;;;;;;;5072815;28;20030;-84
2022/09/12 01:56:41;;;;;;;31.70;23.73;;;;;;;;;;5073656;28;20035;-84
2022/09/12 01:59:29;;;;;;;32.05;24.77;;;;;;;;;;5072571;28;20054;-82
2022/09/12 02:01:58;;;;;;;31.85;23.88;;;;;;;;;;5071234;28;20021;-83
2022/09/12 02:04:27;;;;;;;35.15;26.33;;;;;;;;;;5072387;28;20023;-83
2022/09/12 02:06:56;;;;;;;36.22;25.67;;;;;;;;;;5072994;28;20079;-84
2022/09/12 02:09:25;;;;;;;35.53;26.20;;;;;;;;;;5073152;28;20059;-84
2022/09/12 02:11:53;;;;;;;37.47;27.33;;;;;;;;;;5072116;28;20025;-83
2022/09/12 02:14:24;;;;;;;37.25;28.05;;;;;;;;;;5071607;28;20029;-84
2022/09/12 02:17:07;;;;;;;40.35;27.83;;;;;;;;;;5072660;28;20105;-83
2022/09/12 02:19:35;;;;;;;36.40;27.58;;;;;;;;;;5074703;28;20463;-83
2022/09/12 02:22:02;;;;;;;36.47;27.85;;;;;;;;;;5073631;28;20091;-83
2022/09/12 02:24:30;;;;;;;37.65;27.60;;;;;;;;;;5073908;28;20028;-83
2022/09/12 02:26:59;;;;;;;39.10;30.65;;;;;;;;;;5073149;28;20034;-83
2022/09/12 02:29:25;;;;;;;44.85;31.88;;;;;;;;;;5072942;28;20035;-82
2022/09/12 02:31:58;;;;;;;47.42;35.58;;;;;;;;;;5072435;28;20433;-83
2022/09/12 02:34:59;;;;;;;46.35;32.85;;;;;;;;;;5073019;28;20036;-83
2022/09/12 02:37:41;;;;;;;46.08;34.05;;;;;;;;;;5104716;28;20038;-83
2022/09/12 02:40:08;;;;;;;41.75;31.33;;;;;;;;;;5076647;28;20045;-83
2022/09/12 02:42:35;;;;;;;40.28;30.17;;;;;;;;;;5072090;28;20503;-83
2022/09/12 02:45:03;;;;;;;40.30;31.20;;;;;;;;;;5071965;28;20311;-84
2022/09/12 02:47:36;;;;;;;42.42;30.50;;;;;;;;;;5073105;28;20044;-83
2022/09/12 02:50:04;;;;;;;40.55;30.52;;;;;;;;;;5073158;28;20025;-83
2022/09/12 02:52:31;;;;;;;42.28;31.95;;;;;;;;;;5073153;28;20371;-83
2022/09/12 02:54:57;;;;;;;43.50;31.85;;;;;;;;;;5071695;28;20040;-83
2022/09/12 02:57:23;;;;;;;43.95;32.97;;;;;;;;;;5071606;28;20021;-82
2022/09/12 02:59:51;;;;;;;40.25;31.77;;;;;;;;;;5070780;28;20031;-83
2022/09/12 03:02:23;;;;;;;44.92;31.30;;;;;;;;;;5072729;28;20043;-83
2022/09/12 03:05:08;;;;;;;44.15;32.15;;;;;;;;;;5073071;28;20021;-82
2022/09/12 03:07:42;;;;;;;45.05;31.70;;;;;;;;;;5073895;28;20045;-83
2022/09/12 03:10:08;;;;;;;44.05;31.88;;;;;;;;;;5073028;28;20032;-83
2022/09/12 03:12:46;;;;;;;43.97;33.70;;;;;;;;;;5071958;28;20100;-81
2022/09/12 03:15:22;;;;;;;46.63;35.03;;;;;;;;;;5072374;28;20119;-82
2022/09/12 03:17:56;;;;;;;45.78;33.67;;;;;;;;;;5072947;28;20368;-83
2022/09/12 03:20:30;;;;;;;50.42;37.47;;;;;;;;;;5073428;28;20024;-82
2022/09/12 03:23:02;;;;;;;51.80;36.95;;;;;;;;;;5075120;28;20029;-83
2022/09/12 03:25:38;;;;;;;52.15;37.78;;;;;;;;;;5075581;28;20041;-83
2022/09/12 03:28:10;;;;;;;55.58;39.38;;;;;;;;;;5079477;28;20044;-83
2022/09/12 03:30:41;;;;;;;54.42;38.15;;;;;;;;;;5080636;28;20044;-82
2022/09/12 03:33:10;;;;;;;51.85;37.05;;;;;;;;;;5078078;28;20028;-82
2022/09/12 03:35:36;;;;;;;53.78;37.35;;;;;;;;;;5076019;28;20027;-83
2022/09/12 03:38:04;;;;;;;57.28;40.03;;;;;;;;;;5076534;28;20035;-84
2022/09/12 03:40:30;;;;;;;53.13;36.10;;;;;;;;;;5079719;28;20024;-84
2022/09/12 03:42:56;;;;;;;54.42;37.92;;;;;;;;;;5079274;28;20021;-84
2022/09/12 03:45:22;;;;;;;54.92;38.92;;;;;;;;;;5078186;28;20043;-83
2022/09/12 03:47:48;;;;;;;64.40;42.50;;;;;;;;;;5075868;28;20032;-83
2022/09/12 03:50:14;;;;;;;56.35;38.58;;;;;;;;;;5078648;28;20039;-82
2022/09/12 03:52:40;;;;;;;56.65;40.33;;;;;;;;;;5091394;28;20203;-82
2022/09/12 03:55:06;;;;;;;56.47;39.22;;;;;;;;;;5091456;28;20021;-83
2022/09/12 03:57:32;;;;;;;52.65;37.42;;;;;;;;;;5079686;28;20024;-83
2022/09/12 04:00:00;;;;;;;53.85;37.15;;;;;;;;;;5079629;28;20024;-83
2022/09/12 04:02:28;;;;;;;51.47;35.35;;;;;;;;;;5080239;28;20024;-83
2022/09/12 04:04:55;;;;;;;49.97;35.65;;;;;;;;;;5077329;28;20020;-84
2022/09/12 04:07:21;;;;;;;55.58;37.40;;;;;;;;;;5081737;28;20041;-84
2022/09/12 04:09:47;;;;;;;57.80;40.88;;;;;;;;;;5082565;28;20035;-83
2022/09/12 04:12:13;;;;;;;54.17;37.13;;;;;;;;;;5079585;28;20024;-83
2022/09/12 04:14:40;;;;;;;55.67;37.38;;;;;;;;;;5078304;28;20025;-83
2022/09/12 04:17:09;;;;;;;52.92;36.45;;;;;;;;;;5079244;28;20024;-83
2022/09/12 04:19:37;;;;;;;53.95;34.75;;;;;;;;;;5077866;28;20020;-82
2022/09/12 04:22:04;;;;;;;49.50;34.80;;;;;;;;;;5077008;28;20080;-82
2022/09/12 04:24:30;;;;;;;54.97;36.60;;;;;;;;;;5076317;28;20115;-82
2022/09/12 04:26:57;;;;;;;52.78;36.65;;;;;;;;;;5075603;28;20498;-82
2022/09/12 04:29:23;;;;;;;50.33;35.70;;;;;;;;;;5075493;28;20024;-82
2022/09/12 04:31:49;;;;;;;50.33;34.92;;;;;;;;;;5076672;28;20462;-83
2022/09/12 04:34:15;;;;;;;55.83;37.13;;;;;;;;;;5077561;28;20494;-83
2022/09/12 04:36:41;;;;;;;54.92;36.40;;;;;;;;;;5073998;28;20032;-82
2022/09/12 04:39:07;;;;;;;56.33;36.72;;;;;;;;;;5075342;28;20112;-82
2022/09/12 04:41:35;;;;;;;52.45;36.58;;;;;;;;;;5075419;28;20036;-82
2022/09/12 04:44:03;;;;;;;55.55;37.22;;;;;;;;;;5076110;28;20023;-83
2022/09/12 04:46:30;;;;;;;58.17;40.33;;;;;;;;;;5087916;28;20043;-83
2022/09/12 04:48:56;;;;;;;56.67;37.30;;;;;;;;;;5093750;28;20020;-81
2022/09/12 04:51:26;;;;;;;56.63;37.45;;;;;;;;;;5085071;28;20153;-82
2022/09/12 04:53:53;;;;;;;56.92;35.50;;;;;;;;;;5075638;28;20085;-82
2022/09/12 04:56:20;;;;;;;63.83;39.45;;;;;;;;;;5074688;28;20088;-81
2022/09/12 04:58:46;;;;;;;55.85;37.13;;;;;;;;;;5074291;28;20020;-81
2022/09/12 05:01:14;;;;;;;54.63;35.65;;;;;;;;;;5073279;28;20036;-81
2022/09/12 05:03:44;;;;;;;59.97;38.13;;;;;;;;;;5073492;28;20031;-82
2022/09/12 05:06:16;;;;;;;59.47;37.15;;;;;;;;;;5072615;28;20076;-82
2022/09/12 05:08:42;;;;;;;61.45;37.38;;;;;;;;;;5073478;28;20033;-82
2022/09/12 05:11:12;;;;;;;58.60;39.13;;;;;;;;;;5072870;28;20021;-81
2022/09/12 05:13:39;;;;;;;59.65;37.85;;;;;;;;;;5074428;28;20111;-83
2022/09/12 05:16:05;;;;;;;58.08;39.38;;;;;;;;;;5072564;28;20063;-82
2022/09/12 05:18:32;;;;;;;57.65;38.95;;;;;;;;;;5076300;28;20058;-82
2022/09/12 05:21:02;;;;;;;63.10;41.03;;;;;;;;;;5075598;28;20055;-82
2022/09/12 05:23:29;;;;;;;63.40;39.85;;;;;;;;;;5075514;28;20024;-83
2022/09/12 05:25:57;;;;;;;61.63;38.67;;;;;;;;;;5073510;28;20502;-83
2022/09/12 05:28:23;;;;;;;67.57;38.67;;;;;;;;;;5073048;28;20039;-83
2022/09/12 05:30:59;;;;;;;61.92;39.20;;;;;;;;;;5072169;28;20506;-82
2022/09/12 05:33:25;;;;;;;64.93;40.00;;;;;;;;;;5072954;28;20032;-83
2022/09/12 05:35:51;;;;;;;59.85;37.97;;;;;;;;;;5070875;28;20320;-81
2022/09/12 05:38:18;;;;;;;60.72;41.28;;;;;;;;;;5072107;28;20020;-83
2022/09/12 05:40:44;;;;;;;61.22;37.75;;;;;;;;;;5071460;28;20073;-83
2022/09/12 05:43:11;;;;;;;61.88;38.25;;;;;;;;;;5072814;28;20032;-82
2022/09/12 05:45:37;;;;;;;60.40;38.45;;;;;;;;;;5073540;28;20028;-82
2022/09/12 05:48:03;;;;;;;65.15;39.03;;;;;;;;;;5072769;28;20071;-82
2022/09/12 05:50:29;;;;;;;62.15;39.83;;;;;;;;;;5073832;28;20033;-85
2022/09/12 05:52:57;;;;;;;61.42;38.83;;;;;;;;;;5075544;28;20016;-83
2022/09/12 05:55:23;;;;;;;60.17;38.65;;;;;;;;;;5074155;28;20028;-82
2022/09/12 05:57:50;;;;;;;63.03;38.30;;;;;;;;;;5072936;28;20025;-82
2022/09/12 06:00:17;;;;;;;61.63;38.35;;;;;;;;;;5074000;28;20417;-83
2022/09/12 06:02:53;;;;;;;63.35;39.30;;;;;;;;;;5072883;28;20017;-82
2022/09/12 06:05:19;;;;;;;67.47;39.67;;;;;;;;;;5074683;28;20442;-82
2022/09/12 06:07:47;;;;;;;66.40;41.63;;;;;;;;;;5074116;28;20032;-82
2022/09/12 06:10:13;;;;;;;72.38;44.05;;;;;;;;;;5072207;28;20135;-82
2022/09/12 06:12:39;;;;;;;67.32;41.92;;;;;;;;;;5073422;28;20489;-82
2022/09/12 06:15:06;;;;;;;66.20;39.38;;;;;;;;;;5071635;28;20032;-83
2022/09/12 06:17:32;;;;;;;65.05;40.53;;;;;;;;;;5067252;28;20035;-82
2022/09/12 06:19:59;;;;;;;66.05;43.08;;;;;;;;;;5059179;28;20029;-82
2022/09/12 06:22:25;;;;;;;67.95;40.80;;;;;;;;;;5063487;28;20036;-82
2022/09/12 06:24:51;;;;;;;64.45;39.65;;;;;;;;;;5065562;28;20028;-81
2022/09/12 06:27:17;;;;;;;67.75;41.45;;;;;;;;;;5062080;28;20116;-82
2022/09/12 06:29:43;;;;;;;63.13;37.83;;;;;;;;;;5060290;28;20060;-81
2022/09/12 06:32:12;;;;;;;67.13;40.08;;;;;;;;;;5062565;28;20479;-81
2022/09/12 06:34:38;;;;;;;71.90;42.30;;;;;;;;;;5063533;28;20027;-82
2022/09/12 06:37:04;;;;;;;45.22;28.17;;;;;;;;;;5066077;28;20089;-82
2022/09/12 06:39:31;;;;;;;59.53;38.22;;;;;;;;;;5069280;28;20016;-81
2022/09/12 06:41:57;;;;;;;69.50;39.30;;;;;;;;;;5058833;28;20020;-83
2022/09/12 06:44:23;;;;;;;66.60;38.33;;;;;;;;;;5063277;28;20028;-82
2022/09/12 06:46:49;;;;;;;56.95;35.92;;;;;;;;;;5059067;28;20033;-82
2022/09/12 06:49:16;;;;;;;57.00;34.47;;;;;;;;;;5063198;28;20108;-83
2022/09/12 06:51:42;;;;;;;48.72;30.02;;;;;;;;;;5070368;28;20024;-80
2022/09/12 06:54:09;;;;;;;66.25;37.08;;;;;;;;;;5069508;28;20133;-82
2022/09/12 06:56:36;;;;;;;40.83;26.70;;;;;;;;;;5070804;28;20043;-83
2022/09/12 06:59:03;;;;;;;29.15;18.92;;;;;;;;;;5068533;28;20758;-85
2022/09/12 07:01:30;;;;;;;33.58;20.27;;;;;;;;;;5071768;28;20028;-82
2022/09/12 07:04:01;;;;;;;57.95;36.42;;;;;;;;;;5071692;28;20025;-82
2022/09/12 07:06:30;;;;;;;67.32;40.28;;;;;;;;;;5065590;28;20491;-81
2022/09/12 07:09:01;;;;;;;64.53;38.35;;;;;;;;;;5073879;28;20563;-82
2022/09/12 07:11:30;;;;;;;42.00;25.15;;;;;;;;;;5064540;28;20364;-81
2022/09/12 07:13:57;;;;;;;51.92;34.65;;;;;;;;;;5065064;28;20017;-81
2022/09/12 07:16:26;;;;;;;66.00;42.72;;;;;;;;;;5066883;28;20017;-82
2022/09/12 07:19:01;;;;;;;58.70;36.95;;;;;;;;;;5069501;28;20101;-82
2022/09/12 07:21:29;;;;;;;36.83;23.38;;;;;;;;;;5068397;28;20092;-82
2022/09/12 07:23:57;;;;;;;52.72;33.42;;;;;;;;;;5069039;28;20023;-82
2022/09/12 07:26:24;;;;;;;47.85;28.95;;;;;;;;;;5077958;28;20031;-82
2022/09/12 07:28:52;;;;;;;44.13;30.92;;;;;;;;;;5078072;28;20461;-81
2022/09/12 07:31:19;;;;;;;60.95;39.63;;;;;;;;;;5075528;28;20081;-81
2022/09/12 07:33:51;;;;;;;43.08;29.13;;;;;;;;;;5083100;28;20024;-84
2022/09/12 07:36:21;;;;;;;35.70;23.65;;;;;;;;;;5073268;28;20387;-77
2022/09/12 07:38:47;;;;;;;;;;;;;;;;;;5072265;28;20043;-78
2022/09/12 07:41:14;;;;;;;37.10;24.23;;;;;;;;;;5071574;28;20359;-76
2022/09/12 07:43:40;;;;;;;35.63;21.85;;;;;;;;;;5072055;28;20025;-76
2022/09/12 07:46:07;;;;;;;41.67;28.33;;;;;;;;;;5070500;28;20025;-76
2022/09/12 07:48:33;;;;;;;35.13;23.17;;;;;;;;;;5050233;28;20106;-77
2022/09/12 07:51:00;;;;;;;32.70;20.85;;;;;;;;;;5063163;28;20053;-77
2022/09/12 07:53:30;;;;;;;38.40;25.27;;;;;;;;;;5065413;28;20039;-77
2022/09/12 07:55:56;;;;;;;;;;;;;;;;;;5061546;28;20017;-77
2022/09/12 07:58:23;;;;;;;26.77;18.77;;;;;;;;;;5066826;28;19909;-76
2022/09/12 08:00:49;;;;;;;27.98;18.73;;;;;;;;;;5067253;28;20111;-77
2022/09/12 08:03:15;;;;;;;27.17;17.45;;;;;;;;;;5065556;28;20032;-76
2022/09/12 08:05:41;;;;;;;25.30;17.30;;;;;;;;;;5055702;28;20051;-75
2022/09/12 08:08:08;;;;;;;30.38;20.83;;;;;;;;;;5069441;28;20085;-77
2022/09/12 08:10:34;;;;;;;32.85;21.92;;;;;;;;;;5071572;28;20025;-76
2022/09/12 08:13:01;;;;;;;33.80;24.35;;;;;;;;;;5070814;28;20067;-78
2022/09/12 08:15:28;;;;;;;33.05;23.77;;;;;;;;;;5071254;28;20025;-76
2022/09/12 08:17:54;;;;;;;31.52;22.73;;;;;;;;;;5071271;28;20387;-78
2022/09/12 08:20:20;;;;;;;29.98;20.45;;;;;;;;;;5071489;28;20527;-78
2022/09/12 08:22:46;;;;;;;34.70;19.52;;;;;;;;;;5071610;28;20028;-79
2022/09/12 08:25:12;;;;;;;28.88;20.85;;;;;;;;;;5063485;28;20032;-78
2022/09/12 08:27:38;;;;;;;30.08;21.35;;;;;;;;;;5066258;28;20094;-77
2022/09/12 08:30:05;;;;;;;32.30;22.23;;;;;;;;;;5070922;28;20034;-77
2022/09/12 08:32:31;;;;;;;33.03;24.05;;;;;;;;;;5069515;28;20634;-77
2022/09/12 08:34:57;;;;;;;29.35;22.13;;;;;;;;;;5071248;28;20024;-77
2022/09/12 08:37:23;;;;;;;29.73;20.15;;;;;;;;;;5070913;28;20029;-78
2022/09/12 08:39:49;;;;;;;27.02;19.80;;;;;;;;;;5071192;28;20036;-78
2022/09/12 08:42:23;;;;;;;29.92;19.52;;;;;;;;;;5072174;28;20074;-77
2022/09/12 08:44:52;;;;;;;27.25;19.33;;;;;;;;;;5070637;28;20032;-78
2022/09/12 08:47:27;;;;;;;22.92;15.98;;;;;;;;;;5065334;28;20036;-77
2022/09/12 08:49:53;;;;;;;24.30;17.30;;;;;;;;;;5060151;28;20025;-77
2022/09/12 08:52:19;;;;;;;19.95;14.43;;;;;;;;;;5062343;28;20033;-77
2022/09/12 08:54:46;;;;;;;18.52;13.57;;;;;;;;;;5061266;28;20047;-77
2022/09/12 08:57:14;;;;;;;24.98;16.88;;;;;;;;;;5060388;28;20407;-77
2022/09/12 08:59:45;;;;;;;32.17;21.15;;;;;;;;;;5066097;28;20024;-79
2022/09/12 09:02:22;;;;;;;24.70;16.42;;;;;;;;;;5063958;28;20025;-78
2022/09/12 09:05:03;;;;;;;26.73;18.20;;;;;;;;;;5067758;28;20389;-78
2022/09/12 09:07:48;;;;;;;34.55;24.77;;;;;;;;;;5070094;28;20088;-78
2022/09/12 09:10:20;;;;;;;31.80;23.02;;;;;;;;;;5068080;28;20056;-77
2022/09/12 09:13:12;;;;;;;23.13;16.98;;;;;;;;;;5066147;28;20028;-77
2022/09/12 09:15:50;;;;;;;28.98;22.88;;;;;;;;;;5058999;28;20526;-78
2022/09/12 09:18:24;;;;;;;14.80;10.93;;;;;;;;;;5060468;28;20024;-77
2022/09/12 09:21:02;;;;;;;22.27;15.40;;;;;;;;;;5069360;28;20044;-77
2022/09/12 09:23:34;;;;;;;16.35;11.10;;;;;;;;;;5069655;28;20023;-76
2022/09/12 09:26:00;;;;;;;23.13;15.45;;;;;;;;;;5068955;28;20067;-77
2022/09/12 09:28:29;;;;;;;22.98;16.42;;;;;;;;;;5070186;28;20025;-78
2022/09/12 09:30:55;;;;;;;15.60;10.55;;;;;;;;;;5069264;28;20032;-78
2022/09/12 09:33:23;;;;;;;20.05;13.73;;;;;;;;;;5068727;28;20152;-78
2022/09/12 09:36:12;;;;;;;23.73;15.48;;;;;;;;;;5069852;28;20036;-76
2022/09/12 09:38:49;;;;;;;13.90;9.88;;;;;;;;;;5069621;28;20040;-77
2022/09/12 09:41:18;;;;;;;20.90;14.52;;;;;;;;;;5069473;28;20039;-76
2022/09/12 09:43:44;;;;;;;15.88;10.68;;;;;;;;;;5070168;28;20031;-78
2022/09/12 09:46:10;;;;;;;13.98;10.52;;;;;;;;;;5069404;28;20036;-78
2022/09/12 09:48:40;;;;;;;18.27;12.77;;;;;;;;;;5070008;28;20040;-78
2022/09/12 09:51:08;;;;;;;20.33;14.57;;;;;;;;;;5064825;28;20036;-77
2022/09/12 09:53:46;;;;;;;14.30;9.98;;;;;;;;;;5069585;28;20047;-78
2022/09/12 09:56:25;;;;;;;13.50;9.40;;;;;;;;;;5071998;28;20375;-79
2022/09/12 09:58:51;;;;;;;15.77;10.50;;;;;;;;;;5068312;28;20066;-79
2022/09/12 10:01:18;;;;;;;12.98;9.23;;;;;;;;;;5066960;28;20368;-78
2022/09/12 10:03:52;;;;;;;17.23;12.18;;;;;;;;;;5069097;28;20024;-78
2022/09/12 10:06:26;;;;;;;10.98;6.85;;;;;;;;;;5067991;28;20558;-78
2022/09/12 10:09:03;;;;;;;10.77;7.72;;;;;;;;;;5081303;28;20486;-79
2022/09/12 10:11:29;;;;;;;10.55;7.30;;;;;;;;;;5071506;28;20024;-78
2022/09/12 10:13:57;;;;;;;9.63;6.53;;;;;;;;;;5083928;28;20028;-79
2022/09/12 10:16:30;;;;;;;11.82;7.63;;;;;;;;;;5068309;28;20158;-80
2022/09/12 10:19:00;;;;;;;15.45;9.38;;;;;;;;;;5072047;28;20036;-79
2022/09/12 10:21:34;;;;;;;13.35;9.98;;;;;;;;;;5064564;28;20044;-78
2022/09/12 10:24:03;;;;;;;9.05;5.88;;;;;;;;;;5076034;28;20382;-79
2022/09/12 10:26:33;;;;;;;14.48;10.82;;;;;;;;;;5072206;28;20117;-80
2022/09/12 10:29:05;;;;;;;9.10;5.63;;;;;;;;;;5082400;28;20131;-77
2022/09/12 10:31:50;;;;;;;6.93;5.10;;;;;;;;;;5069844;28;20523;-78
2022/09/12 10:34:54;;;;;;;9.43;5.97;;;;;;;;;;5061063;28;20108;-78
2022/09/12 10:37:23;;;;;;;11.40;6.45;;;;;;;;;;5063517;28;20040;-79
2022/09/12 10:39:52;;;;;;;9.80;6.00;;;;;;;;;;5069967;28;20055;-78
2022/09/12 10:42:38;;;;;;;6.90;5.13;;;;;;;;;;5078228;28;20089;-77
2022/09/12 10:45:05;;;;;;;10.35;7.90;;;;;;;;;;5051325;28;20078;-77
2022/09/12 10:47:31;;;;;;;7.70;5.38;;;;;;;;;;5049029;28;20040;-77
2022/09/12 10:50:17;;;;;;;9.38;7.65;;;;;;;;;;5055426;28;20055;-77
2022/09/12 10:52:43;;;;;;;8.05;6.05;;;;;;;;;;5052899;28;20051;-79
2022/09/12 10:55:22;;;;;;;8.90;5.72;;;;;;;;;;5051001;28;20689;-79
2022/09/12 10:58:00;;;;;;;11.25;8.30;;;;;;;;;;5054686;28;20043;-80
2022/09/12 11:00:29;;;;;;;8.02;5.60;;;;;;;;;;5052949;28;20032;-81
2022/09/12 11:03:14;;;;;;;9.52;6.63;;;;;;;;;;5058826;28;20029;-81
2022/09/12 11:05:55;;;;;;;9.77;6.85;;;;;;;;;;5057356;28;20043;-79
2022/09/12 11:08:21;;;;;;;8.82;6.63;;;;;;;;;;5053968;28;20036;-79
2022/09/12 11:11:06;;;;;;;7.20;5.13;;;;;;;;;;5053555;28;20035;-77
2022/09/12 11:13:41;;;;;;;10.55;8.65;;;;;;;;;;5055042;28;20032;-79
2022/09/12 11:16:26;;;;;;;9.55;5.90;;;;;;;;;;5054212;28;20048;-80
2022/09/12 11:18:52;;;;;;;8.93;6.63;;;;;;;;;;5055419;28;20032;-80
2022/09/12 11:21:30;;;;;;;9.23;5.68;;;;;;;;;;5052849;28;20049;-81
2022/09/12 11:24:15;;;;;;;7.10;4.57;;;;;;;;;;5049084;28;20108;-79
2022/09/12 11:26:41;;;;;;;10.07;6.78;;;;;;;;;;5056054;28;20611;-82
2022/09/12 11:29:17;;;;;;;7.00;3.58;;;;;;;;;;5054040;28;20028;-80
2022/09/12 11:31:49;;;;;;;8.00;5.70;;;;;;;;;;5056459;28;20139;-80
2022/09/12 11:34:25;;;;;;;9.10;6.35;;;;;;;;;;5052614;28;20024;-81
2022/09/12 11:36:59;;;;;;;7.63;5.90;;;;;;;;;;5052241;28;20090;-82
2022/09/12 11:39:37;;;;;;;10.05;4.38;;;;;;;;;;5051137;28;20052;-82
2022/09/12 11:42:04;;;;;;;6.55;3.88;;;;;;;;;;5048493;28;20032;-80
2022/09/12 11:44:36;;;;;;;9.10;6.43;;;;;;;;;;5053003;28;20037;-79
2022/09/12 11:47:07;;;;;;;6.18;3.15;;;;;;;;;;5053079;28;20036;-80
2022/09/12 11:49:37;;;;;;;6.68;4.45;;;;;;;;;;5058403;28;20063;-79
2022/09/12 11:52:11;;;;;;;7.32;4.05;;;;;;;;;;5059318;28;20503;-80
2022/09/12 11:54:44;;;;;;;6.75;5.50;;;;;;;;;;5056277;28;20039;-79
2022/09/12 11:57:20;;;;;;;7.15;3.80;;;;;;;;;;5056725;28;20108;-77
2022/09/12 11:59:55;;;;;;;7.00;4.97;;;;;;;;;;5056654;28;20108;-79
2022/09/12 12:02:25;;;;;;;7.28;4.80;;;;;;;;;;5061750;28;20073;-79
2022/09/12 12:05:14;;;;;;;5.25;3.95;;;;;;;;;;5052051;28;20033;-79
2022/09/12 12:07:42;;;;;;;9.93;3.25;;;;;;;;;;5066434;28;20049;-80
2022/09/12 12:10:21;;;;;;;7.35;4.07;;;;;;;;;;5057826;28;20062;-79
2022/09/12 12:12:48;;;;;;;5.07;3.17;;;;;;;;;;5057262;28;20021;-79
2022/09/12 12:15:15;;;;;;;6.95;4.20;;;;;;;;;;5056159;28;20029;-79
2022/09/12 12:17:42;;;;;;;6.40;4.00;;;;;;;;;;5057210;28;20028;-80
2022/09/12 12:20:15;;;;;;;9.30;5.15;;;;;;;;;;5059417;28;20472;-79
2022/09/12 12:22:51;;;;;;;6.80;4.07;;;;;;;;;;5057680;28;20025;-79
2022/09/12 12:25:17;;;;;;;7.50;4.63;;;;;;;;;;5056106;28;20025;-80
2022/09/12 12:27:49;;;;;;;4.32;2.80;;;;;;;;;;5054246;28;20017;-79
2022/09/12 12:30:30;;;;;;;6.53;5.53;;;;;;;;;;5056412;28;20037;-79
2022/09/12 12:33:00;;;;;;;8.05;4.78;;;;;;;;;;5052455;28;20067;-79
2022/09/12 12:35:36;;;;;;;5.03;2.38;;;;;;;;;;5051847;28;20021;-79
2022/09/12 12:38:02;;;;;;;5.03;2.58;;;;;;;;;;5049949;28;20491;-79
2022/09/12 12:40:29;;;;;;;6.75;4.32;;;;;;;;;;5056045;28;20016;-79
2022/09/12 12:42:55;;;;;;;6.30;3.83;;;;;;;;;;5058153;28;20027;-76
2022/09/12 12:45:24;;;;;;;4.53;2.92;;;;;;;;;;5055995;28;20029;-76
2022/09/12 12:47:52;;;;;;;6.05;2.70;;;;;;;;;;5060195;28;20029;-75
2022/09/12 12:50:18;;;;;;;7.07;4.57;;;;;;;;;;5057349;28;20032;-75
2022/09/12 12:52:49;;;;;;;5.68;3.95;;;;;;;;;;5061143;28;20040;-75
2022/09/12 12:55:25;;;;;;;6.75;4.63;;;;;;;;;;5059947;28;20037;-74
2022/09/12 12:57:52;;;;;;;6.60;4.82;;;;;;;;;;5056348;28;20031;-76
2022/09/12 13:00:28;;;;;;;5.13;2.42;;;;;;;;;;5054492;28;20050;-75
2022/09/12 13:02:58;;;;;;;5.63;3.53;;;;;;;;;;5054858;28;20016;-75
2022/09/12 13:05:25;;;;;;;10.10;3.28;;;;;;;;;;5054509;28;20060;-75
2022/09/12 13:07:54;;;;;;;9.80;5.88;;;;;;;;;;5054828;28;20039;-75
2022/09/12 13:10:25;;;;;;;5.97;3.20;;;;;;;;;;5055221;28;20115;-76
2022/09/12 13:12:52;;;;;;;5.82;3.88;;;;;;;;;;5057856;28;20052;-75
2022/09/12 13:15:33;;;;;;;4.88;2.15;;;;;;;;;;5058377;28;20031;-76
2022/09/12 13:18:01;;;;;;;6.88;4.35;;;;;;;;;;5056675;28;20024;-77
2022/09/12 13:20:33;;;;;;;5.75;2.33;;;;;;;;;;5057075;28;20022;-78
2022/09/12 13:22:59;;;;;;;7.35;5.10;;;;;;;;;;5053899;28;20025;-76
2022/09/12 13:25:25;;;;;;;4.53;2.60;;;;;;;;;;5054467;28;20086;-77
2022/09/12 13:27:57;;;;;;;5.40;2.13;;;;;;;;;;5056394;28;20491;-76
2022/09/12 13:30:23;;;;;;;9.70;5.45;;;;;;;;;;5053928;28;20047;-77
2022/09/12 13:32:49;;;;;;;7.18;4.10;;;;;;;;;;5052173;28;20526;-76
2022/09/12 13:35:34;;;;;;;6.15;4.55;;;;;;;;;;5057405;28;20032;-77
2022/09/12 13:38:00;;;;;;;4.90;2.55;;;;;;;;;;5051315;28;20062;-76
2022/09/12 13:40:52;;;;;;;11.52;4.47;;;;;;;;;;5054758;28;20024;-77
2022/09/12 13:43:24;;;;;;;4.95;3.17;;;;;;;;;;5065120;28;20037;-77
2022/09/12 13:45:52;;;;;;;10.95;4.47;;;;;;;;;;5050960;28;20029;-77
2022/09/12 13:48:20;;;;;;;4.47;2.97;;;;;;;;;;5054003;28;20058;-76
2022/09/12 13:50:55;;;;;;;7.28;3.20;;;;;;;;;;5051516;28;20040;-74
2022/09/12 13:53:23;;;;;;;5.20;3.03;;;;;;;;;;5055191;28;20077;-76
2022/09/12 13:55:56;;;;;;;6.63;3.83;;;;;;;;;;5051047;28;20020;-74
2022/09/12 13:58:24;;;;;;;12.32;4.50;;;;;;;;;;5054070;28;20037;-76
2022/09/12 14:01:08;;;;;;;8.23;2.95;;;;;;;;;;5051312;28;20021;-75
2022/09/12 14:06:26;;;;;;;8.02;3.65;;;;;;;;;;5069496;28;20034;-76
2022/09/12 14:08:55;;;;;;;5.30;2.95;;;;;;;;;;5065689;28;20166;-76
2022/09/12 14:11:27;;;;;;;9.48;3.38;;;;;;;;;;5067116;28;20017;-75
2022/09/12 14:13:54;;;;;;;7.80;5.15;;;;;;;;;;5063020;28;20194;-74
2022/09/12 14:16:22;;;;;;;6.80;4.03;;;;;;;;;;5066552;28;20387;-74
2022/09/12 14:18:48;;;;;;;9.68;5.18;;;;;;;;;;5064670;28;20042;-73
2022/09/12 14:21:20;;;;;;;6.88;3.33;;;;;;;;;;5062912;28;20431;-75
2022/09/12 14:23:47;;;;;;;6.10;3.95;;;;;;;;;;5059045;28;20475;-75
2022/09/12 14:26:16;;;;;;;6.53;3.95;;;;;;;;;;5057883;28;20025;-75
2022/09/12 14:28:46;;;;;;;4.30;2.72;;;;;;;;;;5059428;28;20056;-76
2022/09/12 14:31:14;;;;;;;10.43;3.15;;;;;;;;;;5056051;28;20032;-73
2022/09/12 14:33:47;;;;;;;7.00;3.40;;;;;;;;;;5067664;28;20028;-73
2022/09/12 14:36:35;;;;;;;4.68;2.78;;;;;;;;;;5058337;28;20037;-74
2022/09/12 14:39:06;;;;;;;6.55;3.45;;;;;;;;;;5053800;28;20704;-73
2022/09/12 14:41:37;;;;;;;6.95;3.05;;;;;;;;;;5062681;28;20020;-73
2022/09/12 14:44:10;;;;;;;5.30;2.88;;;;;;;;;;5059145;28;20506;-74
2022/09/12 14:46:40;;;;;;;8.35;1.90;;;;;;;;;;5057582;28;20016;-74